sensor_id;sensor_type;location;lat;lon;timestamp;P1;durP1;ratioP1;P2;durP2;ratioP2
20379;SDS011;10349;48.666;8.948;2022-12-18T00:00:05;17.05;;;8.63;;
20379;SDS011;10349;48.666;8.948;2022-12-18T00:02:38;12.48;;;7.47;;
20379;SDS011;10349;48.666;8.948;2022-12-18T00:05:04;13.70;;;9.47;;
20379;SDS011;10349;48.666;8.948;2022-12-18T00:07:30;13.63;;;8.47;;
20379;SDS011;10349;48.666;8.948;2022-12-18T00:09:56;13.50;;;7.60;;
20379;SDS011;10349;48.666;8.948;2022-12-18T00:12:22;10.73;;;6.00;;
20379;SDS011;10349;48.666;8.948;2022-12-18T00:14:47;18.47;;;12.00;;
20379;SDS011;10349;48.666;8.948;2022-12-18T00:17:13;24.63;;;11.27;;
20379;SDS011;10349;48.666;8.948;2022-12-18T00:19:38;11.93;;;7.10;;
20379;SDS011;10349;48.666;8.948;2022-12-18T00:22:04;9.53;;;8.50;;
20379;SDS011;10349;48.666;8.948;2022-12-18T00:24:31;8.60;;;7.07;;
20379;SDS011;10349;48.666;8.948;2022-12-18T00:26:57;10.10;;;7.93;;
20379;SDS011;10349;48.666;8.948;2022-12-18T00:29:22;23.63;;;9.70;;
20379;SDS011;10349;48.666;8.948;2022-12-18T00:31:48;19.40;;;9.20;;
20379;SDS011;10349;48.666;8.948;2022-12-18T00:34:14;16.07;;;8.93;;
20379;SDS011;10349;48.666;8.948;2022-12-18T00:36:39;11.13;;;6.23;;
20379;SDS011;10349;48.666;8.948;2022-12-18T00:39:06;20.50;;;11.10;;
20379;SDS011;10349;48.666;8.948;2022-12-18T00:41:32;12.88;;;8.73;;
20379;SDS011;10349;48.666;8.948;2022-12-18T00:44:17;25.25;;;10.70;;
20379;SDS011;10349;48.666;8.948;2022-12-18T00:46:44;24.13;;;9.95;;
20379;SDS011;10349;48.666;8.948;2022-12-18T00:49:11;23.75;;;9.85;;
20379;SDS011;10349;48.666;8.948;2022-12-18T00:51:38;12.15;;;9.52;;
20379;SDS011;10349;48.666;8.948;2022-12-18T00:54:04;13.33;;;8.17;;
20379;SDS011;10349;48.666;8.948;2022-12-18T00:56:30;15.03;;;9.17;;
20379;SDS011;10349;48.666;8.948;2022-12-18T00:58:55;15.30;;;10.73;;
20379;SDS011;10349;48.666;8.948;2022-12-18T01:01:21;16.60;;;7.63;;
20379;SDS011;10349;48.666;8.948;2022-12-18T01:03:47;16.63;;;7.20;;
20379;SDS011;10349;48.666;8.948;2022-12-18T01:06:15;13.33;;;7.37;;
20379;SDS011;10349;48.666;8.948;2022-12-18T01:08:41;18.43;;;8.00;;
20379;SDS011;10349;48.666;8.948;2022-12-18T01:11:12;23.48;;;10.15;;
20379;SDS011;10349;48.666;8.948;2022-12-18T01:13:43;4.95;;;4.53;;
20379;SDS011;10349;48.666;8.948;2022-12-18T01:16:11;14.10;;;8.55;;
20379;SDS011;10349;48.666;8.948;2022-12-18T01:18:41;14.40;;;8.18;;
20379;SDS011;10349;48.666;8.948;2022-12-18T01:21:07;19.43;;;11.03;;
20379;SDS011;10349;48.666;8.948;2022-12-18T01:23:36;9.70;;;6.20;;
20379;SDS011;10349;48.666;8.948;2022-12-18T01:26:10;13.15;;;7.78;;
20379;SDS011;10349;48.666;8.948;2022-12-18T01:28:38;28.02;;;8.45;;
20379;SDS011;10349;48.666;8.948;2022-12-18T01:31:24;5.95;;;5.45;;
20379;SDS011;10349;48.666;8.948;2022-12-18T01:33:53;5.40;;;4.97;;
20379;SDS011;10349;48.666;8.948;2022-12-18T01:36:23;5.72;;;5.32;;
20379;SDS011;10349;48.666;8.948;2022-12-18T01:38:51;12.35;;;6.97;;
20379;SDS011;10349;48.666;8.948;2022-12-18T01:41:19;16.00;;;9.10;;
20379;SDS011;10349;48.666;8.948;2022-12-18T01:43:49;17.77;;;8.75;;
20379;SDS011;10349;48.666;8.948;2022-12-18T01:46:21;24.08;;;8.68;;
20379;SDS011;10349;48.666;8.948;2022-12-18T01:48:59;15.50;;;6.32;;
20379;SDS011;10349;48.666;8.948;2022-12-18T01:51:27;12.75;;;7.57;;
20379;SDS011;10349;48.666;8.948;2022-12-18T01:53:54;13.07;;;7.37;;
20379;SDS011;10349;48.666;8.948;2022-12-18T01:56:20;9.87;;;8.43;;
20379;SDS011;10349;48.666;8.948;2022-12-18T02:01:29;21.50;;;10.82;;
20379;SDS011;10349;48.666;8.948;2022-12-18T02:04:19;10.13;;;7.40;;
20379;SDS011;10349;48.666;8.948;2022-12-18T02:06:55;9.70;;;8.13;;
20379;SDS011;10349;48.666;8.948;2022-12-18T02:09:31;16.90;;;7.97;;
20379;SDS011;10349;48.666;8.948;2022-12-18T02:12:16;24.58;;;12.35;;
20379;SDS011;10349;48.666;8.948;2022-12-18T02:17:36;26.38;;;15.30;;
20379;SDS011;10349;48.666;8.948;2022-12-18T02:20:13;31.15;;;17.40;;
20379;SDS011;10349;48.666;8.948;2022-12-18T02:28:19;17.92;;;11.63;;
20379;SDS011;10349;48.666;8.948;2022-12-18T02:30:49;22.90;;;14.50;;
20379;SDS011;10349;48.666;8.948;2022-12-18T02:33:19;23.70;;;15.20;;
20379;SDS011;10349;48.666;8.948;2022-12-18T02:35:50;22.77;;;14.95;;
20379;SDS011;10349;48.666;8.948;2022-12-18T02:38:19;38.67;;;17.00;;
20379;SDS011;10349;48.666;8.948;2022-12-18T02:40:48;29.52;;;12.85;;
20379;SDS011;10349;48.666;8.948;2022-12-18T02:43:17;29.85;;;15.80;;
20379;SDS011;10349;48.666;8.948;2022-12-18T02:45:50;34.25;;;16.88;;
20379;SDS011;10349;48.666;8.948;2022-12-18T02:48:22;31.92;;;15.90;;
20379;SDS011;10349;48.666;8.948;2022-12-18T02:51:04;19.75;;;13.13;;
20379;SDS011;10349;48.666;8.948;2022-12-18T02:53:37;27.08;;;14.73;;
20379;SDS011;10349;48.666;8.948;2022-12-18T02:59:09;33.75;;;17.83;;
20379;SDS011;10349;48.666;8.948;2022-12-18T03:01:52;27.27;;;15.10;;
20379;SDS011;10349;48.666;8.948;2022-12-18T03:04:30;34.55;;;15.43;;
20379;SDS011;10349;48.666;8.948;2022-12-18T03:07:20;11.43;;;9.85;;
20379;SDS011;10349;48.666;8.948;2022-12-18T03:09:58;18.15;;;8.82;;
20379;SDS011;10349;48.666;8.948;2022-12-18T03:12:30;17.70;;;9.77;;
20379;SDS011;10349;48.666;8.948;2022-12-18T03:15:19;12.30;;;9.63;;
20379;SDS011;10349;48.666;8.948;2022-12-18T03:18:06;22.23;;;7.55;;
20379;SDS011;10349;48.666;8.948;2022-12-18T03:20:40;7.43;;;6.93;;
20379;SDS011;10349;48.666;8.948;2022-12-18T03:23:15;9.20;;;6.40;;
20379;SDS011;10349;48.666;8.948;2022-12-18T03:25:47;21.03;;;8.17;;
20379;SDS011;10349;48.666;8.948;2022-12-18T03:28:19;18.00;;;9.55;;
20379;SDS011;10349;48.666;8.948;2022-12-18T03:30:52;16.42;;;11.05;;
20379;SDS011;10349;48.666;8.948;2022-12-18T03:33:25;16.30;;;9.35;;
20379;SDS011;10349;48.666;8.948;2022-12-18T03:35:57;14.13;;;7.20;;
20379;SDS011;10349;48.666;8.948;2022-12-18T03:38:23;12.70;;;7.27;;
20379;SDS011;10349;48.666;8.948;2022-12-18T03:43:49;9.20;;;7.18;;
20379;SDS011;10349;48.666;8.948;2022-12-18T03:48:59;9.00;;;7.03;;
20379;SDS011;10349;48.666;8.948;2022-12-18T03:54:10;6.73;;;5.83;;
20379;SDS011;10349;48.666;8.948;2022-12-18T03:56:42;16.97;;;10.37;;
20379;SDS011;10349;48.666;8.948;2022-12-18T03:59:12;10.98;;;7.88;;
20379;SDS011;10349;48.666;8.948;2022-12-18T04:01:42;8.93;;;7.43;;
20379;SDS011;10349;48.666;8.948;2022-12-18T04:04:13;14.98;;;7.47;;
20379;SDS011;10349;48.666;8.948;2022-12-18T04:06:41;9.37;;;7.47;;
20379;SDS011;10349;48.666;8.948;2022-12-18T04:09:10;9.65;;;7.35;;
20379;SDS011;10349;48.666;8.948;2022-12-18T04:11:41;10.40;;;9.00;;
20379;SDS011;10349;48.666;8.948;2022-12-18T04:14:10;9.80;;;6.90;;
20379;SDS011;10349;48.666;8.948;2022-12-18T04:16:35;15.37;;;7.03;;
20379;SDS011;10349;48.666;8.948;2022-12-18T04:19:03;12.33;;;5.40;;
20379;SDS011;10349;48.666;8.948;2022-12-18T04:21:36;6.27;;;5.77;;
20379;SDS011;10349;48.666;8.948;2022-12-18T04:24:02;8.37;;;7.07;;
20379;SDS011;10349;48.666;8.948;2022-12-18T04:26:28;8.15;;;7.40;;
20379;SDS011;10349;48.666;8.948;2022-12-18T04:29:06;12.17;;;6.40;;
20379;SDS011;10349;48.666;8.948;2022-12-18T04:31:31;6.33;;;5.20;;
20379;SDS011;10349;48.666;8.948;2022-12-18T04:33:57;7.80;;;4.90;;
20379;SDS011;10349;48.666;8.948;2022-12-18T04:36:23;14.80;;;9.07;;
20379;SDS011;10349;48.666;8.948;2022-12-18T04:38:49;20.37;;;7.37;;
20379;SDS011;10349;48.666;8.948;2022-12-18T04:41:16;6.20;;;4.83;;
20379;SDS011;10349;48.666;8.948;2022-12-18T04:43:44;14.32;;;8.40;;
20379;SDS011;10349;48.666;8.948;2022-12-18T04:46:10;20.07;;;8.00;;
20379;SDS011;10349;48.666;8.948;2022-12-18T04:48:36;22.03;;;7.23;;
20379;SDS011;10349;48.666;8.948;2022-12-18T04:51:02;14.63;;;7.23;;
20379;SDS011;10349;48.666;8.948;2022-12-18T04:53:29;9.50;;;8.67;;
20379;SDS011;10349;48.666;8.948;2022-12-18T04:56:11;15.00;;;6.63;;
20379;SDS011;10349;48.666;8.948;2022-12-18T04:58:39;7.60;;;6.87;;
20379;SDS011;10349;48.666;8.948;2022-12-18T05:01:06;10.33;;;7.03;;
20379;SDS011;10349;48.666;8.948;2022-12-18T05:03:32;14.13;;;8.87;;
20379;SDS011;10349;48.666;8.948;2022-12-18T05:05:59;24.97;;;12.07;;
20379;SDS011;10349;48.666;8.948;2022-12-18T05:08:25;10.10;;;7.50;;
20379;SDS011;10349;48.666;8.948;2022-12-18T05:11:04;18.90;;;9.17;;
20379;SDS011;10349;48.666;8.948;2022-12-18T05:13:32;13.57;;;6.87;;
20379;SDS011;10349;48.666;8.948;2022-12-18T05:15:58;18.90;;;7.50;;
20379;SDS011;10349;48.666;8.948;2022-12-18T05:18:24;20.93;;;8.50;;
20379;SDS011;10349;48.666;8.948;2022-12-18T05:20:50;11.70;;;7.20;;
20379;SDS011;10349;48.666;8.948;2022-12-18T05:23:17;23.47;;;8.60;;
20379;SDS011;10349;48.666;8.948;2022-12-18T05:25:46;12.43;;;6.93;;
20379;SDS011;10349;48.666;8.948;2022-12-18T05:28:16;18.80;;;7.27;;
20379;SDS011;10349;48.666;8.948;2022-12-18T05:30:41;13.43;;;6.77;;
20379;SDS011;10349;48.666;8.948;2022-12-18T05:33:07;13.70;;;8.00;;
20379;SDS011;10349;48.666;8.948;2022-12-18T05:35:32;21.43;;;8.83;;
20379;SDS011;10349;48.666;8.948;2022-12-18T05:37:58;14.10;;;5.27;;
20379;SDS011;10349;48.666;8.948;2022-12-18T05:40:24;16.73;;;7.50;;
20379;SDS011;10349;48.666;8.948;2022-12-18T05:42:50;8.60;;;6.47;;
20379;SDS011;10349;48.666;8.948;2022-12-18T05:45:15;10.17;;;8.73;;
20379;SDS011;10349;48.666;8.948;2022-12-18T05:47:41;16.23;;;8.20;;
20379;SDS011;10349;48.666;8.948;2022-12-18T05:50:07;22.43;;;11.47;;
20379;SDS011;10349;48.666;8.948;2022-12-18T05:52:33;19.27;;;8.37;;
20379;SDS011;10349;48.666;8.948;2022-12-18T05:54:58;15.97;;;7.50;;
20379;SDS011;10349;48.666;8.948;2022-12-18T05:57:24;13.63;;;6.57;;
20379;SDS011;10349;48.666;8.948;2022-12-18T05:59:49;16.23;;;8.70;;
20379;SDS011;10349;48.666;8.948;2022-12-18T06:02:15;16.57;;;9.00;;
20379;SDS011;10349;48.666;8.948;2022-12-18T06:04:41;17.67;;;8.07;;
20379;SDS011;10349;48.666;8.948;2022-12-18T06:07:07;16.13;;;7.63;;
20379;SDS011;10349;48.666;8.948;2022-12-18T06:09:33;22.50;;;9.43;;
20379;SDS011;10349;48.666;8.948;2022-12-18T06:11:58;18.43;;;10.17;;
20379;SDS011;10349;48.666;8.948;2022-12-18T06:14:24;8.73;;;7.83;;
20379;SDS011;10349;48.666;8.948;2022-12-18T06:16:50;19.43;;;7.93;;
20379;SDS011;10349;48.666;8.948;2022-12-18T06:19:17;13.53;;;8.13;;
20379;SDS011;10349;48.666;8.948;2022-12-18T06:21:42;16.27;;;8.73;;
20379;SDS011;10349;48.666;8.948;2022-12-18T06:24:08;14.43;;;8.90;;
20379;SDS011;10349;48.666;8.948;2022-12-18T06:26:36;14.57;;;6.93;;
20379;SDS011;10349;48.666;8.948;2022-12-18T06:29:03;11.23;;;9.77;;
20379;SDS011;10349;48.666;8.948;2022-12-18T06:31:29;20.97;;;9.37;;
20379;SDS011;10349;48.666;8.948;2022-12-18T06:33:55;18.63;;;9.70;;
20379;SDS011;10349;48.666;8.948;2022-12-18T06:36:21;21.07;;;10.30;;
20379;SDS011;10349;48.666;8.948;2022-12-18T06:38:47;19.57;;;10.07;;
20379;SDS011;10349;48.666;8.948;2022-12-18T06:41:14;17.60;;;11.87;;
20379;SDS011;10349;48.666;8.948;2022-12-18T06:43:41;36.30;;;14.23;;
20379;SDS011;10349;48.666;8.948;2022-12-18T06:46:08;19.63;;;10.27;;
20379;SDS011;10349;48.666;8.948;2022-12-18T06:48:34;22.07;;;11.80;;
20379;SDS011;10349;48.666;8.948;2022-12-18T06:51:00;21.17;;;11.70;;
20379;SDS011;10349;48.666;8.948;2022-12-18T06:53:26;17.50;;;11.43;;
20379;SDS011;10349;48.666;8.948;2022-12-18T06:55:52;34.77;;;10.67;;
20379;SDS011;10349;48.666;8.948;2022-12-18T06:58:24;24.67;;;10.80;;
20379;SDS011;10349;48.666;8.948;2022-12-18T07:00:49;18.37;;;9.70;;
20379;SDS011;10349;48.666;8.948;2022-12-18T07:03:15;14.63;;;10.03;;
20379;SDS011;10349;48.666;8.948;2022-12-18T07:05:40;28.70;;;10.07;;
20379;SDS011;10349;48.666;8.948;2022-12-18T07:08:06;23.30;;;9.77;;
20379;SDS011;10349;48.666;8.948;2022-12-18T07:10:32;26.47;;;11.30;;
20379;SDS011;10349;48.666;8.948;2022-12-18T07:12:57;8.20;;;7.50;;
20379;SDS011;10349;48.666;8.948;2022-12-18T07:15:23;22.40;;;11.33;;
20379;SDS011;10349;48.666;8.948;2022-12-18T07:17:49;13.23;;;10.40;;
20379;SDS011;10349;48.666;8.948;2022-12-18T07:20:14;14.27;;;9.83;;
20379;SDS011;10349;48.666;8.948;2022-12-18T07:22:40;14.83;;;7.87;;
20379;SDS011;10349;48.666;8.948;2022-12-18T07:25:06;17.37;;;10.00;;
20379;SDS011;10349;48.666;8.948;2022-12-18T07:27:32;12.27;;;8.47;;
20379;SDS011;10349;48.666;8.948;2022-12-18T07:29:57;8.43;;;7.20;;
20379;SDS011;10349;48.666;8.948;2022-12-18T07:32:23;8.60;;;7.40;;
20379;SDS011;10349;48.666;8.948;2022-12-18T07:34:49;22.00;;;9.47;;
20379;SDS011;10349;48.666;8.948;2022-12-18T07:37:14;18.10;;;9.23;;
20379;SDS011;10349;48.666;8.948;2022-12-18T07:39:40;9.03;;;8.23;;
20379;SDS011;10349;48.666;8.948;2022-12-18T07:42:07;12.47;;;8.57;;
20379;SDS011;10349;48.666;8.948;2022-12-18T07:44:51;13.70;;;9.20;;
20379;SDS011;10349;48.666;8.948;2022-12-18T07:47:17;16.87;;;8.57;;
20379;SDS011;10349;48.666;8.948;2022-12-18T07:49:42;18.57;;;9.77;;
20379;SDS011;10349;48.666;8.948;2022-12-18T07:52:08;25.10;;;7.00;;
20379;SDS011;10349;48.666;8.948;2022-12-18T07:54:34;15.10;;;8.27;;
20379;SDS011;10349;48.666;8.948;2022-12-18T07:57:00;21.43;;;10.37;;
20379;SDS011;10349;48.666;8.948;2022-12-18T07:59:25;15.33;;;12.93;;
20379;SDS011;10349;48.666;8.948;2022-12-18T08:01:51;27.13;;;9.10;;
20379;SDS011;10349;48.666;8.948;2022-12-18T08:04:17;17.27;;;7.67;;
20379;SDS011;10349;48.666;8.948;2022-12-18T08:06:43;21.20;;;11.60;;
20379;SDS011;10349;48.666;8.948;2022-12-18T08:09:09;22.53;;;10.33;;
20379;SDS011;10349;48.666;8.948;2022-12-18T08:11:35;14.52;;;6.50;;
20379;SDS011;10349;48.666;8.948;2022-12-18T08:14:01;23.83;;;11.43;;
20379;SDS011;10349;48.666;8.948;2022-12-18T08:16:27;36.13;;;11.93;;
20379;SDS011;10349;48.666;8.948;2022-12-18T08:18:53;8.93;;;7.43;;
20379;SDS011;10349;48.666;8.948;2022-12-18T08:21:20;33.73;;;8.00;;
20379;SDS011;10349;48.666;8.948;2022-12-18T08:23:48;32.78;;;14.65;;
20379;SDS011;10349;48.666;8.948;2022-12-18T08:26:15;22.88;;;12.07;;
20379;SDS011;10349;48.666;8.948;2022-12-18T08:28:42;13.17;;;8.57;;
20379;SDS011;10349;48.666;8.948;2022-12-18T08:31:08;13.77;;;12.37;;
20379;SDS011;10349;48.666;8.948;2022-12-18T08:33:34;17.00;;;9.27;;
20379;SDS011;10349;48.666;8.948;2022-12-18T08:36:01;27.85;;;10.93;;
20379;SDS011;10349;48.666;8.948;2022-12-18T08:38:27;24.73;;;11.77;;
20379;SDS011;10349;48.666;8.948;2022-12-18T08:40:59;15.87;;;10.87;;
20379;SDS011;10349;48.666;8.948;2022-12-18T08:43:33;27.10;;;12.90;;
20379;SDS011;10349;48.666;8.948;2022-12-18T08:46:18;21.77;;;10.00;;
20379;SDS011;10349;48.666;8.948;2022-12-18T08:48:44;23.13;;;9.93;;
20379;SDS011;10349;48.666;8.948;2022-12-18T08:51:10;17.60;;;9.90;;
20379;SDS011;10349;48.666;8.948;2022-12-18T08:53:37;15.73;;;11.57;;
20379;SDS011;10349;48.666;8.948;2022-12-18T08:56:04;8.63;;;7.93;;
20379;SDS011;10349;48.666;8.948;2022-12-18T08:58:30;13.87;;;9.17;;
20379;SDS011;10349;48.666;8.948;2022-12-18T09:00:59;21.00;;;10.20;;
20379;SDS011;10349;48.666;8.948;2022-12-18T09:03:29;22.07;;;11.63;;
20379;SDS011;10349;48.666;8.948;2022-12-18T09:05:55;32.87;;;10.80;;
20379;SDS011;10349;48.666;8.948;2022-12-18T09:08:20;31.53;;;12.63;;
20379;SDS011;10349;48.666;8.948;2022-12-18T09:10:47;27.37;;;9.47;;
20379;SDS011;10349;48.666;8.948;2022-12-18T09:13:14;17.77;;;9.00;;
20379;SDS011;10349;48.666;8.948;2022-12-18T09:15:41;22.17;;;13.97;;
20379;SDS011;10349;48.666;8.948;2022-12-18T09:18:08;25.37;;;9.00;;
20379;SDS011;10349;48.666;8.948;2022-12-18T09:20:35;23.80;;;12.50;;
20379;SDS011;10349;48.666;8.948;2022-12-18T09:23:01;41.20;;;12.37;;
20379;SDS011;10349;48.666;8.948;2022-12-18T09:25:28;27.40;;;11.60;;
20379;SDS011;10349;48.666;8.948;2022-12-18T09:27:58;24.10;;;13.00;;
20379;SDS011;10349;48.666;8.948;2022-12-18T09:30:25;46.23;;;17.27;;
20379;SDS011;10349;48.666;8.948;2022-12-18T09:32:51;38.60;;;14.87;;
20379;SDS011;10349;48.666;8.948;2022-12-18T09:35:17;23.70;;;13.27;;
20379;SDS011;10349;48.666;8.948;2022-12-18T09:37:42;38.23;;;14.70;;
20379;SDS011;10349;48.666;8.948;2022-12-18T09:40:14;37.87;;;15.07;;
20379;SDS011;10349;48.666;8.948;2022-12-18T09:42:43;30.00;;;14.90;;
20379;SDS011;10349;48.666;8.948;2022-12-18T09:45:15;34.73;;;15.60;;
20379;SDS011;10349;48.666;8.948;2022-12-18T09:47:42;35.70;;;18.70;;
20379;SDS011;10349;48.666;8.948;2022-12-18T09:50:53;39.17;;;19.30;;
20379;SDS011;10349;48.666;8.948;2022-12-18T09:53:12;39.13;;;18.37;;
20379;SDS011;10349;48.666;8.948;2022-12-18T09:55:44;36.27;;;18.83;;
20379;SDS011;10349;48.666;8.948;2022-12-18T10:00:37;33.73;;;17.67;;
20379;SDS011;10349;48.666;8.948;2022-12-18T10:03:13;44.27;;;18.53;;
20379;SDS011;10349;48.666;8.948;2022-12-18T10:11:22;40.50;;;16.73;;
20379;SDS011;10349;48.666;8.948;2022-12-18T10:14:19;37.20;;;19.10;;
20379;SDS011;10349;48.666;8.948;2022-12-18T10:19:45;46.93;;;21.47;;
20379;SDS011;10349;48.666;8.948;2022-12-18T10:28:15;38.90;;;22.53;;
20379;SDS011;10349;48.666;8.948;2022-12-18T10:30:43;32.40;;;17.13;;
20379;SDS011;10349;48.666;8.948;2022-12-18T10:33:17;37.70;;;18.83;;
20379;SDS011;10349;48.666;8.948;2022-12-18T10:35:48;53.87;;;19.97;;
20379;SDS011;10349;48.666;8.948;2022-12-18T10:38:23;33.33;;;16.10;;
20379;SDS011;10349;48.666;8.948;2022-12-18T10:43:44;36.33;;;19.20;;
20379;SDS011;10349;48.666;8.948;2022-12-18T10:54:05;44.60;;;18.73;;
20379;SDS011;10349;48.666;8.948;2022-12-18T10:56:38;35.10;;;20.47;;
20379;SDS011;10349;48.666;8.948;2022-12-18T10:59:05;46.53;;;19.53;;
20379;SDS011;10349;48.666;8.948;2022-12-18T11:04:50;36.33;;;16.80;;
20379;SDS011;10349;48.666;8.948;2022-12-18T11:07:18;43.07;;;17.30;;
20379;SDS011;10349;48.666;8.948;2022-12-18T11:09:46;38.37;;;18.40;;
20379;SDS011;10349;48.666;8.948;2022-12-18T11:12:25;45.50;;;20.63;;
20379;SDS011;10349;48.666;8.948;2022-12-18T11:14:54;35.00;;;17.07;;
20379;SDS011;10349;48.666;8.948;2022-12-18T11:17:26;35.90;;;16.47;;
20379;SDS011;10349;48.666;8.948;2022-12-18T11:20:01;42.17;;;19.40;;
20379;SDS011;10349;48.666;8.948;2022-12-18T11:22:35;33.50;;;15.87;;
20379;SDS011;10349;48.666;8.948;2022-12-18T11:27:55;34.87;;;17.73;;
20379;SDS011;10349;48.666;8.948;2022-12-18T11:30:27;26.97;;;14.80;;
20379;SDS011;10349;48.666;8.948;2022-12-18T11:38:10;30.23;;;16.20;;
20379;SDS011;10349;48.666;8.948;2022-12-18T11:40:58;32.83;;;17.97;;
20379;SDS011;10349;48.666;8.948;2022-12-18T11:43:54;31.83;;;17.77;;
20379;SDS011;10349;48.666;8.948;2022-12-18T11:46:34;34.77;;;17.60;;
20379;SDS011;10349;48.666;8.948;2022-12-18T11:49:06;32.97;;;13.57;;
20379;SDS011;10349;48.666;8.948;2022-12-18T11:51:45;33.50;;;15.90;;
20379;SDS011;10349;48.666;8.948;2022-12-18T11:54:35;27.67;;;14.23;;
20379;SDS011;10349;48.666;8.948;2022-12-18T12:08:49;36.50;;;16.33;;
20379;SDS011;10349;48.666;8.948;2022-12-18T12:14:15;34.87;;;15.53;;
20379;SDS011;10349;48.666;8.948;2022-12-18T12:31:05;31.57;;;15.47;;
20379;SDS011;10349;48.666;8.948;2022-12-18T12:33:56;30.50;;;14.77;;
20379;SDS011;10349;48.666;8.948;2022-12-18T12:39:22;33.53;;;14.97;;
20379;SDS011;10349;48.666;8.948;2022-12-18T12:42:06;38.03;;;15.80;;
20379;SDS011;10349;48.666;8.948;2022-12-18T12:45:37;27.77;;;12.83;;
20379;SDS011;10349;48.666;8.948;2022-12-18T12:51:11;35.67;;;16.23;;
20379;SDS011;10349;48.666;8.948;2022-12-18T12:53:37;28.33;;;14.50;;
20379;SDS011;10349;48.666;8.948;2022-12-18T12:56:06;34.00;;;14.93;;
20379;SDS011;10349;48.666;8.948;2022-12-18T13:04:08;23.50;;;13.17;;
20379;SDS011;10349;48.666;8.948;2022-12-18T13:06:47;31.93;;;15.93;;
20379;SDS011;10349;48.666;8.948;2022-12-18T13:09:29;25.20;;;13.80;;
20379;SDS011;10349;48.666;8.948;2022-12-18T13:12:01;30.83;;;13.70;;
20379;SDS011;10349;48.666;8.948;2022-12-18T13:14:52;35.10;;;15.63;;
20379;SDS011;10349;48.666;8.948;2022-12-18T13:22:23;39.37;;;18.40;;
20379;SDS011;10349;48.666;8.948;2022-12-18T13:24:58;58.13;;;27.90;;
20379;SDS011;10349;48.666;8.948;2022-12-18T13:35:40;40.10;;;16.97;;
20379;SDS011;10349;48.666;8.948;2022-12-18T13:43:39;27.40;;;12.90;;
20379;SDS011;10349;48.666;8.948;2022-12-18T13:46:30;35.90;;;15.77;;
20379;SDS011;10349;48.666;8.948;2022-12-18T13:51:49;25.63;;;13.37;;
20379;SDS011;10349;48.666;8.948;2022-12-18T13:54:36;34.97;;;13.60;;
20379;SDS011;10349;48.666;8.948;2022-12-18T13:57:53;23.13;;;13.07;;
20379;SDS011;10349;48.666;8.948;2022-12-18T13:59:57;27.87;;;14.10;;
20379;SDS011;10349;48.666;8.948;2022-12-18T14:02:44;22.63;;;14.27;;
20379;SDS011;10349;48.666;8.948;2022-12-18T14:05:21;31.40;;;14.00;;
20379;SDS011;10349;48.666;8.948;2022-12-18T14:08:01;23.57;;;13.60;;
20379;SDS011;10349;48.666;8.948;2022-12-18T14:10:43;40.73;;;16.43;;
20379;SDS011;10349;48.666;8.948;2022-12-18T14:13:15;30.90;;;13.67;;
20379;SDS011;10349;48.666;8.948;2022-12-18T14:15:54;24.43;;;12.03;;
20379;SDS011;10349;48.666;8.948;2022-12-18T14:20:57;29.50;;;12.03;;
20379;SDS011;10349;48.666;8.948;2022-12-18T14:23:41;29.73;;;14.00;;
20379;SDS011;10349;48.666;8.948;2022-12-18T14:26:24;27.50;;;14.23;;
20379;SDS011;10349;48.666;8.948;2022-12-18T14:28:58;35.40;;;13.80;;
20379;SDS011;10349;48.666;8.948;2022-12-18T14:31:29;32.37;;;13.67;;
20379;SDS011;10349;48.666;8.948;2022-12-18T14:33:56;25.20;;;14.87;;
20379;SDS011;10349;48.666;8.948;2022-12-18T14:36:23;33.83;;;16.77;;
20379;SDS011;10349;48.666;8.948;2022-12-18T14:38:51;36.37;;;17.80;;
20379;SDS011;10349;48.666;8.948;2022-12-18T14:41:19;28.57;;;15.63;;
20379;SDS011;10349;48.666;8.948;2022-12-18T14:43:47;36.83;;;16.57;;
20379;SDS011;10349;48.666;8.948;2022-12-18T14:48:55;38.37;;;16.93;;
20379;SDS011;10349;48.666;8.948;2022-12-18T14:51:22;36.57;;;15.80;;
20379;SDS011;10349;48.666;8.948;2022-12-18T14:53:58;38.70;;;18.53;;
20379;SDS011;10349;48.666;8.948;2022-12-18T14:56:33;30.30;;;16.53;;
20379;SDS011;10349;48.666;8.948;2022-12-18T14:59:02;34.03;;;17.70;;
20379;SDS011;10349;48.666;8.948;2022-12-18T15:01:38;30.90;;;18.30;;
20379;SDS011;10349;48.666;8.948;2022-12-18T15:04:23;38.70;;;19.20;;
20379;SDS011;10349;48.666;8.948;2022-12-18T15:07:02;46.00;;;20.60;;
20379;SDS011;10349;48.666;8.948;2022-12-18T15:09:39;35.03;;;19.00;;
20379;SDS011;10349;48.666;8.948;2022-12-18T15:14:58;48.80;;;20.17;;
20379;SDS011;10349;48.666;8.948;2022-12-18T15:17:24;48.50;;;21.97;;
20379;SDS011;10349;48.666;8.948;2022-12-18T15:19:51;52.00;;;22.97;;
20379;SDS011;10349;48.666;8.948;2022-12-18T15:22:27;41.03;;;18.80;;
20379;SDS011;10349;48.666;8.948;2022-12-18T15:24:55;35.90;;;20.03;;
20379;SDS011;10349;48.666;8.948;2022-12-18T15:27:33;30.30;;;15.23;;
20379;SDS011;10349;48.666;8.948;2022-12-18T15:32:35;57.93;;;22.70;;
20379;SDS011;10349;48.666;8.948;2022-12-18T15:37:41;52.07;;;24.60;;
20379;SDS011;10349;48.666;8.948;2022-12-18T15:40:08;51.90;;;25.47;;
20379;SDS011;10349;48.666;8.948;2022-12-18T15:42:41;59.37;;;26.07;;
20379;SDS011;10349;48.666;8.948;2022-12-18T15:45:25;56.50;;;25.33;;
20379;SDS011;10349;48.666;8.948;2022-12-18T15:47:51;61.13;;;26.40;;
20379;SDS011;10349;48.666;8.948;2022-12-18T15:50:17;65.23;;;30.17;;
20379;SDS011;10349;48.666;8.948;2022-12-18T15:52:44;79.20;;;29.20;;
20379;SDS011;10349;48.666;8.948;2022-12-18T15:55:15;46.00;;;24.27;;
20379;SDS011;10349;48.666;8.948;2022-12-18T15:58:01;44.43;;;24.77;;
20379;SDS011;10349;48.666;8.948;2022-12-18T16:00:27;41.30;;;20.53;;
20379;SDS011;10349;48.666;8.948;2022-12-18T16:02:53;48.77;;;22.10;;
20379;SDS011;10349;48.666;8.948;2022-12-18T16:05:19;55.10;;;25.10;;
20379;SDS011;10349;48.666;8.948;2022-12-18T16:07:46;45.53;;;20.77;;
20379;SDS011;10349;48.666;8.948;2022-12-18T16:10:13;42.20;;;22.60;;
20379;SDS011;10349;48.666;8.948;2022-12-18T16:12:38;41.40;;;20.10;;
20379;SDS011;10349;48.666;8.948;2022-12-18T16:15:05;55.43;;;23.03;;
20379;SDS011;10349;48.666;8.948;2022-12-18T16:17:31;44.43;;;23.10;;
20379;SDS011;10349;48.666;8.948;2022-12-18T16:19:57;40.63;;;20.30;;
20379;SDS011;10349;48.666;8.948;2022-12-18T16:22:24;45.33;;;22.73;;
20379;SDS011;10349;48.666;8.948;2022-12-18T16:24:52;48.07;;;21.60;;
20379;SDS011;10349;48.666;8.948;2022-12-18T16:27:18;50.27;;;24.20;;
20379;SDS011;10349;48.666;8.948;2022-12-18T16:29:45;56.40;;;24.50;;
20379;SDS011;10349;48.666;8.948;2022-12-18T16:32:12;59.67;;;26.33;;
20379;SDS011;10349;48.666;8.948;2022-12-18T16:34:42;47.23;;;19.97;;
20379;SDS011;10349;48.666;8.948;2022-12-18T16:37:09;52.23;;;21.67;;
20379;SDS011;10349;48.666;8.948;2022-12-18T16:39:36;47.07;;;21.43;;
20379;SDS011;10349;48.666;8.948;2022-12-18T16:42:06;45.93;;;22.70;;
20379;SDS011;10349;48.666;8.948;2022-12-18T16:44:41;38.43;;;18.80;;
20379;SDS011;10349;48.666;8.948;2022-12-18T16:47:08;49.83;;;23.47;;
20379;SDS011;10349;48.666;8.948;2022-12-18T16:49:34;57.77;;;21.87;;
20379;SDS011;10349;48.666;8.948;2022-12-18T16:51:59;57.37;;;23.70;;
20379;SDS011;10349;48.666;8.948;2022-12-18T16:54:25;40.50;;;22.57;;
20379;SDS011;10349;48.666;8.948;2022-12-18T16:56:54;53.70;;;20.10;;
20379;SDS011;10349;48.666;8.948;2022-12-18T16:59:23;46.97;;;23.37;;
20379;SDS011;10349;48.666;8.948;2022-12-18T17:01:50;45.60;;;23.53;;